createdAt,value
2022-10-13T00:01:27.760Z,0
2022-10-13T00:17:41.315Z,0
2022-10-13T00:23:03.898Z,0
2022-10-13T00:28:52.441Z,0
2022-10-13T00:34:15.319Z,0
2022-10-13T00:39:37.795Z,0
2022-10-13T00:45:00.162Z,0
2022-10-13T00:50:46.501Z,0
2022-10-13T00:56:09.032Z,0
2022-10-13T01:03:04.443Z,0
2022-10-13T01:08:27.648Z,0
2022-10-13T01:13:49.982Z,0
2022-10-13T01:19:12.199Z,0
2022-10-13T01:24:34.983Z,0
2022-10-13T01:29:57.425Z,0
2022-10-13T01:35:20.000Z,0
2022-10-13T01:40:42.331Z,0
2022-10-13T01:46:04.923Z,0
2022-10-13T01:51:30.358Z,0
2022-10-13T01:56:52.705Z,0
2022-10-13T02:02:18.556Z,0
2022-10-13T02:07:41.099Z,0
2022-10-13T02:13:10.283Z,0
2022-10-13T02:18:32.807Z,0
2022-10-13T02:23:55.190Z,0
2022-10-13T02:29:18.009Z,0
2022-10-13T02:45:29.388Z,0
2022-10-13T02:50:51.669Z,0
2022-10-13T02:56:14.149Z,0
2022-10-13T03:01:37.548Z,0
2022-10-13T03:07:00.057Z,0
2022-10-13T03:12:23.707Z,0
2022-10-13T03:17:46.162Z,0
2022-10-13T03:23:08.918Z,0
2022-10-13T03:28:34.387Z,1
2022-10-13T03:33:57.247Z,0
2022-10-13T03:39:19.751Z,1
2022-10-13T03:44:42.317Z,3
2022-10-13T03:50:05.036Z,0
2022-10-13T03:55:53.130Z,0
2022-10-13T04:01:15.835Z,1
2022-10-13T04:06:38.559Z,0
2022-10-13T04:12:03.373Z,2
2022-10-13T04:17:25.916Z,0
2022-10-13T04:22:48.443Z,0
2022-10-13T04:28:11.063Z,0
2022-10-13T04:33:39.549Z,0
2022-10-13T04:39:02.289Z,0
2022-10-13T04:44:25.210Z,0
2022-10-13T04:49:47.964Z,0
2022-10-13T04:55:13.353Z,0
2022-10-13T05:00:36.200Z,0
2022-10-13T05:05:59.509Z,0
2022-10-13T05:11:22.116Z,0
2022-10-13T05:16:44.614Z,0
2022-10-13T05:22:07.052Z,0
2022-10-13T05:27:29.579Z,0
2022-10-13T05:32:54.383Z,0
2022-10-13T05:44:00.748Z,9
2022-10-13T05:54:45.955Z,12.1
2022-10-13T06:00:10.736Z,28
2022-10-13T06:05:42.296Z,32.2
2022-10-13T06:11:04.709Z,42.5
2022-10-13T06:16:27.504Z,58.8
2022-10-13T06:21:49.962Z,77.8
2022-10-13T06:27:12.752Z,106
2022-10-13T06:32:35.648Z,127.3
2022-10-13T06:38:07.514Z,137.1
2022-10-13T06:43:40.837Z,178.3
2022-10-13T06:49:04.423Z,205.6
2022-10-13T06:54:27.139Z,205.7
2022-10-13T06:59:51.898Z,200.7
2022-10-13T07:05:14.771Z,192.9
2022-10-13T07:10:46.619Z,183.9
2022-10-13T07:16:09.155Z,177.4
2022-10-13T07:21:32.341Z,157.3
2022-10-13T07:26:57.721Z,164.6
2022-10-13T07:32:20.382Z,230.8
2022-10-13T07:37:45.378Z,256.8
2022-10-13T07:48:33.600Z,459.8
2022-10-13T07:53:56.503Z,617.6
2022-10-13T07:59:19.511Z,764.8
2022-10-13T08:10:10.634Z,560.5
2022-10-13T08:15:41.624Z,400.1
2022-10-13T08:22:09.879Z,530.3
2022-10-13T08:27:55.722Z,507.4
2022-10-13T08:33:20.367Z,542.5
2022-10-13T08:38:43.041Z,684
2022-10-13T08:45:40.675Z,831.2
2022-10-13T08:51:07.908Z,1026.4
2022-10-13T08:56:31.388Z,971.3
2022-10-13T09:02:02.636Z,855.5
2022-10-13T09:07:25.369Z,684
2022-10-13T09:12:48.015Z,535.6
2022-10-13T09:18:10.603Z,508.8
2022-10-13T09:24:18.207Z,475.6
2022-10-13T09:29:41.134Z,477.9
2022-10-13T09:35:11.256Z,471.3
2022-10-13T09:40:34.297Z,479.4
2022-10-13T09:45:56.929Z,477.4
2022-10-13T09:51:19.519Z,482.9
2022-10-13T09:56:41.941Z,546.6
2022-10-13T10:02:04.467Z,607.5
2022-10-13T10:07:26.957Z,615.6
2022-10-13T10:12:53.145Z,605.9
2022-10-13T10:18:16.378Z,605.3
2022-10-13T10:23:56.492Z,495.4
2022-10-13T10:29:19.309Z,508.5
2022-10-13T10:34:41.751Z,598.1
2022-10-13T10:40:04.744Z,623.6
2022-10-13T10:56:15.248Z,434.2
2022-10-13T11:01:40.588Z,425.6
2022-10-13T11:07:03.427Z,484.1
2022-10-13T11:12:25.898Z,474.4
2022-10-13T11:17:48.515Z,536.5
2022-10-13T11:23:11.183Z,571.8
2022-10-13T11:28:33.663Z,645.9
2022-10-13T11:34:13.746Z,772.1
2022-10-13T11:39:37.177Z,864.3
2022-10-13T11:44:59.594Z,871
2022-10-13T11:50:22.137Z,867.3
2022-10-13T11:55:51.931Z,826.7
2022-10-13T12:01:14.768Z,685.3
2022-10-13T12:06:36.883Z,484.2
2022-10-13T12:11:59.009Z,424.2
2022-10-13T12:17:30.528Z,385.8
2022-10-13T12:22:53.504Z,407.2
2022-10-13T12:28:16.175Z,478.4
2022-10-13T12:33:46.415Z,431.8
2022-10-13T12:39:08.771Z,408.3
2022-10-13T12:55:28.428Z,370.4
2022-10-13T13:00:51.208Z,402
2022-10-13T13:06:13.639Z,380.7
2022-10-13T13:11:36.246Z,362.6
2022-10-13T13:17:02.575Z,411.8
2022-10-13T13:22:32.717Z,410.1
2022-10-13T13:27:55.596Z,489
2022-10-13T13:33:27.499Z,608.5
2022-10-13T13:38:50.408Z,360.1
2022-10-13T13:44:12.722Z,247.4
2022-10-13T13:49:34.794Z,258
2022-10-13T13:54:58.127Z,457.6
2022-10-13T14:00:20.991Z,441.3
2022-10-13T14:05:43.492Z,321.7
2022-10-13T14:11:05.856Z,301.1
2022-10-13T14:16:28.678Z,323.6
2022-10-13T14:22:00.557Z,332.4
2022-10-13T14:32:45.343Z,187.5
2022-10-13T14:38:07.366Z,137.5
2022-10-13T14:43:29.771Z,163.9
2022-10-13T14:48:53.736Z,207.6
2022-10-13T14:54:16.492Z,184.2
2022-10-13T14:59:39.151Z,157.9
2022-10-13T15:05:01.668Z,174
2022-10-13T15:10:24.184Z,190.7
2022-10-13T15:15:46.617Z,162.5
2022-10-13T15:21:09.008Z,146.8
2022-10-13T15:26:31.677Z,108
2022-10-13T15:31:53.956Z,74.5
2022-10-13T15:37:23.800Z,79.9
2022-10-13T15:42:46.755Z,89.7
2022-10-13T15:48:16.710Z,65.1
2022-10-13T15:53:39.346Z,55.8
2022-10-13T16:04:32.397Z,41.3
2022-10-13T16:10:07.005Z,46
2022-10-13T16:15:29.769Z,33
2022-10-13T16:26:14.836Z,30.9
2022-10-13T16:31:37.550Z,34.8
2022-10-13T16:37:05.402Z,18.1
2022-10-13T16:42:28.087Z,6
2022-10-13T16:47:50.606Z,11
2022-10-13T16:53:13.092Z,5
2022-10-13T16:58:38.286Z,0
2022-10-13T17:04:00.846Z,0
2022-10-13T17:09:26.314Z,0
2022-10-13T17:14:48.893Z,0
2022-10-13T17:20:11.289Z,0
2022-10-13T17:30:49.337Z,0
2022-10-13T17:36:11.808Z,0
2022-10-13T17:41:37.143Z,0
2022-10-13T17:52:21.739Z,0
2022-10-13T17:57:44.065Z,0
2022-10-13T18:13:44.019Z,0
2022-10-13T18:19:07.680Z,0
2022-10-13T18:24:29.790Z,0
2022-10-13T18:29:59.444Z,0
2022-10-13T18:35:22.096Z,0
2022-10-13T18:40:44.535Z,0
2022-10-13T18:51:37.001Z,0
2022-10-13T18:56:59.672Z,0
2022-10-13T19:02:21.919Z,0
2022-10-13T19:07:55.036Z,0
2022-10-13T19:18:39.725Z,0
2022-10-13T19:24:09.587Z,0
2022-10-13T19:29:32.236Z,0
2022-10-13T19:34:55.075Z,0
2022-10-13T19:40:17.824Z,0
2022-10-13T19:45:40.738Z,0
2022-10-13T19:51:03.431Z,0
2022-10-13T19:56:28.373Z,0
2022-10-13T20:01:50.975Z,0
2022-10-13T20:07:13.946Z,0
2022-10-13T20:12:36.479Z,0
2022-10-13T20:17:59.045Z,0
2022-10-13T20:23:21.683Z,0
2022-10-13T20:28:44.406Z,0
2022-10-13T20:34:06.932Z,0
2022-10-13T20:39:29.482Z,0
2022-10-13T20:45:34.510Z,0
2022-10-13T20:50:57.052Z,0
2022-10-13T21:07:12.441Z,0
2022-10-13T21:12:37.932Z,0
2022-10-13T21:18:00.188Z,0
2022-10-13T21:23:22.543Z,0
2022-10-13T21:28:45.918Z,0
2022-10-13T21:34:11.946Z,0
2022-10-13T21:39:34.689Z,0
2022-10-13T21:44:57.186Z,0
2022-10-13T21:50:23.840Z,3
2022-10-13T21:55:46.287Z,0
2022-10-13T22:01:11.767Z,0
2022-10-13T22:06:34.307Z,0
2022-10-13T22:12:13.317Z,0
2022-10-13T22:17:36.005Z,0
2022-10-13T22:22:58.453Z,0
2022-10-13T22:28:21.284Z,0
2022-10-13T22:33:43.847Z,0
2022-10-13T22:39:17.840Z,0
2022-10-13T22:44:40.486Z,0
2022-10-13T22:50:03.074Z,0
2022-10-13T23:00:51.659Z,0
2022-10-13T23:06:14.262Z,0
2022-10-13T23:11:36.884Z,0
2022-10-13T23:17:01.657Z,3
2022-10-13T23:22:24.441Z,0
2022-10-13T23:27:47.010Z,0
2022-10-13T23:33:15.147Z,3
2022-10-13T23:38:37.631Z,0
2022-10-13T23:44:45.455Z,0
2022-10-13T23:50:08.069Z,0
2022-10-13T23:55:30.625Z,0
